sensor_id;sensor_type;location;lat;lon;timestamp;pressure;altitude;pressure_sealevel;temperature;humidity
48204;BME280;33994;50.998;5.864;2022-12-17T00:01:00;101734.16;;;-1.53;95.39
48204;BME280;33994;50.998;5.864;2022-12-17T00:04:04;101728.25;;;-1.50;95.27
48204;BME280;33994;50.998;5.864;2022-12-17T00:07:06;101723.00;;;-1.53;94.99
48204;BME280;33994;50.998;5.864;2022-12-17T00:10:11;101728.84;;;-1.56;94.93
48204;BME280;33994;50.998;5.864;2022-12-17T00:13:18;101726.22;;;-1.57;95.19
48204;BME280;33994;50.998;5.864;2022-12-17T00:16:22;101724.44;;;-1.58;95.21
48204;BME280;33994;50.998;5.864;2022-12-17T00:19:25;101726.59;;;-1.50;95.15
48204;BME280;33994;50.998;5.864;2022-12-17T00:22:28;101729.53;;;-1.42;95.38
48204;BME280;33994;50.998;5.864;2022-12-17T00:25:32;101738.16;;;-1.40;94.86
48204;BME280;33994;50.998;5.864;2022-12-17T00:28:35;101728.72;;;-1.41;94.89
48204;BME280;33994;50.998;5.864;2022-12-17T00:31:38;101736.41;;;-1.41;94.67
48204;BME280;33994;50.998;5.864;2022-12-17T00:34:42;101738.03;;;-1.43;94.78
48204;BME280;33994;50.998;5.864;2022-12-17T00:37:46;101741.47;;;-1.42;94.89
48204;BME280;33994;50.998;5.864;2022-12-17T00:40:53;101737.22;;;-1.42;94.92
48204;BME280;33994;50.998;5.864;2022-12-17T00:43:56;101743.25;;;-1.41;94.34
48204;BME280;33994;50.998;5.864;2022-12-17T00:46:59;101748.28;;;-1.43;94.28
48204;BME280;33994;50.998;5.864;2022-12-17T00:50:03;101744.94;;;-1.42;94.54
48204;BME280;33994;50.998;5.864;2022-12-17T00:53:06;101748.44;;;-1.40;94.25
48204;BME280;33994;50.998;5.864;2022-12-17T00:56:10;101745.94;;;-1.38;94.43
48204;BME280;33994;50.998;5.864;2022-12-17T00:59:13;101741.72;;;-1.38;94.66
48204;BME280;33994;50.998;5.864;2022-12-17T01:02:19;101746.03;;;-1.37;94.36
48204;BME280;33994;50.998;5.864;2022-12-17T01:05:23;101746.03;;;-1.37;94.08
48204;BME280;33994;50.998;5.864;2022-12-17T01:08:26;101744.13;;;-1.41;94.26
48204;BME280;33994;50.998;5.864;2022-12-17T01:11:30;101750.06;;;-1.42;94.59
48204;BME280;33994;50.998;5.864;2022-12-17T01:14:33;101748.13;;;-1.46;94.69
48204;BME280;33994;50.998;5.864;2022-12-17T01:17:36;101754.38;;;-1.41;94.58
48204;BME280;33994;50.998;5.864;2022-12-17T01:20:39;101758.03;;;-1.36;94.56
48204;BME280;33994;50.998;5.864;2022-12-17T01:23:42;101757.22;;;-1.35;94.47
48204;BME280;33994;50.998;5.864;2022-12-17T01:26:46;101754.59;;;-1.36;94.27
48204;BME280;33994;50.998;5.864;2022-12-17T01:29:49;101763.84;;;-1.40;94.51
48204;BME280;33994;50.998;5.864;2022-12-17T01:32:59;101765.31;;;-1.45;94.28
48204;BME280;33994;50.998;5.864;2022-12-17T01:36:02;101777.00;;;-1.50;94.60
48204;BME280;33994;50.998;5.864;2022-12-17T01:39:05;101782.03;;;-1.53;94.71
48204;BME280;33994;50.998;5.864;2022-12-17T01:42:12;101788.97;;;-1.51;94.77
48204;BME280;33994;50.998;5.864;2022-12-17T01:45:15;101789.78;;;-1.52;94.77
48204;BME280;33994;50.998;5.864;2022-12-17T01:48:29;101787.81;;;-1.57;94.74
48204;BME280;33994;50.998;5.864;2022-12-17T01:51:34;101796.38;;;-1.57;94.75
48204;BME280;33994;50.998;5.864;2022-12-17T01:54:38;101798.84;;;-1.58;94.90
48204;BME280;33994;50.998;5.864;2022-12-17T01:57:43;101795.56;;;-1.56;94.76
48204;BME280;33994;50.998;5.864;2022-12-17T02:00:47;101799.59;;;-1.61;94.27
48204;BME280;33994;50.998;5.864;2022-12-17T02:03:50;101803.69;;;-1.64;94.58
48204;BME280;33994;50.998;5.864;2022-12-17T02:07:00;101801.91;;;-1.65;94.65
48204;BME280;33994;50.998;5.864;2022-12-17T02:10:15;101807.94;;;-1.65;94.65
48204;BME280;33994;50.998;5.864;2022-12-17T02:13:25;101803.59;;;-1.66;94.31
48204;BME280;33994;50.998;5.864;2022-12-17T02:16:35;101805.28;;;-1.66;94.35
48204;BME280;33994;50.998;5.864;2022-12-17T02:19:46;101808.66;;;-1.67;94.54
48204;BME280;33994;50.998;5.864;2022-12-17T02:23:00;101807.84;;;-1.66;94.30
48204;BME280;33994;50.998;5.864;2022-12-17T02:26:11;101814.44;;;-1.71;94.35
48204;BME280;33994;50.998;5.864;2022-12-17T02:29:17;101813.56;;;-1.72;94.18
48204;BME280;33994;50.998;5.864;2022-12-17T02:32:22;101817.66;;;-1.76;94.15
48204;BME280;33994;50.998;5.864;2022-12-17T02:35:29;101816.69;;;-1.78;94.53
48204;BME280;33994;50.998;5.864;2022-12-17T02:38:33;101815.88;;;-1.77;94.51
48204;BME280;33994;50.998;5.864;2022-12-17T02:41:50;101818.59;;;-1.74;94.50
48204;BME280;33994;50.998;5.864;2022-12-17T02:44:56;101821.09;;;-1.75;94.55
48204;BME280;33994;50.998;5.864;2022-12-17T02:48:00;101823.72;;;-1.74;94.25
48204;BME280;33994;50.998;5.864;2022-12-17T02:51:04;101816.91;;;-1.73;94.17
48204;BME280;33994;50.998;5.864;2022-12-17T02:54:07;101820.28;;;-1.74;94.37
48204;BME280;33994;50.998;5.864;2022-12-17T02:57:10;101813.47;;;-1.74;94.36
48204;BME280;33994;50.998;5.864;2022-12-17T03:00:15;101823.56;;;-1.77;94.10
48204;BME280;33994;50.998;5.864;2022-12-17T03:03:19;101828.56;;;-1.80;93.98
48204;BME280;33994;50.998;5.864;2022-12-17T03:06:22;101832.06;;;-1.78;94.02
48204;BME280;33994;50.998;5.864;2022-12-17T03:09:24;101833.13;;;-1.74;94.32
48204;BME280;33994;50.998;5.864;2022-12-17T03:12:28;101834.56;;;-1.79;94.11
48204;BME280;33994;50.998;5.864;2022-12-17T03:15:32;101836.97;;;-1.82;94.02
48204;BME280;33994;50.998;5.864;2022-12-17T03:18:35;101838.66;;;-1.83;93.91
48204;BME280;33994;50.998;5.864;2022-12-17T03:21:38;101843.84;;;-1.81;94.21
48204;BME280;33994;50.998;5.864;2022-12-17T03:24:41;101837.84;;;-1.82;94.11
48204;BME280;33994;50.998;5.864;2022-12-17T03:27:44;101847.16;;;-1.84;94.32
48204;BME280;33994;50.998;5.864;2022-12-17T03:30:50;101852.13;;;-1.87;94.01
48204;BME280;33994;50.998;5.864;2022-12-17T03:33:53;101849.56;;;-1.87;94.33
48204;BME280;33994;50.998;5.864;2022-12-17T03:36:56;101857.31;;;-1.85;94.05
48204;BME280;33994;50.998;5.864;2022-12-17T03:39:59;101861.75;;;-1.83;94.03
48204;BME280;33994;50.998;5.864;2022-12-17T03:43:05;101866.06;;;-1.82;93.87
48204;BME280;33994;50.998;5.864;2022-12-17T03:46:09;101870.47;;;-1.79;93.89
48204;BME280;33994;50.998;5.864;2022-12-17T03:49:12;101865.50;;;-1.76;94.09
48204;BME280;33994;50.998;5.864;2022-12-17T03:52:15;101875.78;;;-1.76;93.54
48204;BME280;33994;50.998;5.864;2022-12-17T03:55:18;101857.72;;;-1.78;93.64
48204;BME280;33994;50.998;5.864;2022-12-17T03:58:21;101862.94;;;-1.76;93.44
48204;BME280;33994;50.998;5.864;2022-12-17T04:01:26;101860.50;;;-1.73;93.28
48204;BME280;33994;50.998;5.864;2022-12-17T04:04:29;101870.78;;;-1.73;92.79
48204;BME280;33994;50.998;5.864;2022-12-17T04:07:32;101875.03;;;-1.74;92.75
48204;BME280;33994;50.998;5.864;2022-12-17T04:10:35;101873.97;;;-1.77;92.70
48204;BME280;33994;50.998;5.864;2022-12-17T04:13:38;101879.13;;;-1.77;92.79
48204;BME280;33994;50.998;5.864;2022-12-17T04:16:43;101883.38;;;-1.78;92.28
48204;BME280;33994;50.998;5.864;2022-12-17T04:19:46;101887.69;;;-1.77;92.33
48204;BME280;33994;50.998;5.864;2022-12-17T04:22:49;101884.19;;;-1.79;92.44
48204;BME280;33994;50.998;5.864;2022-12-17T04:25:52;101891.06;;;-1.78;91.94
48204;BME280;33994;50.998;5.864;2022-12-17T04:28:55;101891.72;;;-1.82;91.89
48204;BME280;33994;50.998;5.864;2022-12-17T04:31:59;101891.78;;;-1.80;91.74
48204;BME280;33994;50.998;5.864;2022-12-17T04:35:03;101890.19;;;-1.78;91.63
48204;BME280;33994;50.998;5.864;2022-12-17T04:38:06;101897.00;;;-1.79;91.46
48204;BME280;33994;50.998;5.864;2022-12-17T04:41:09;101905.50;;;-1.80;91.18
48204;BME280;33994;50.998;5.864;2022-12-17T04:44:12;101895.38;;;-1.77;91.22
48204;BME280;33994;50.998;5.864;2022-12-17T04:47:16;101903.19;;;-1.75;91.30
48204;BME280;33994;50.998;5.864;2022-12-17T04:50:20;101907.44;;;-1.76;90.98
48204;BME280;33994;50.998;5.864;2022-12-17T04:53:23;101901.41;;;-1.76;90.90
48204;BME280;33994;50.998;5.864;2022-12-17T04:56:26;101904.75;;;-1.77;90.79
48204;BME280;33994;50.998;5.864;2022-12-17T04:59:29;101907.44;;;-1.76;90.35
48204;BME280;33994;50.998;5.864;2022-12-17T05:02:33;101904.22;;;-1.71;90.07
48204;BME280;33994;50.998;5.864;2022-12-17T05:05:36;101906.78;;;-1.71;89.83
48204;BME280;33994;50.998;5.864;2022-12-17T05:08:39;101915.28;;;-1.72;89.29
48204;BME280;33994;50.998;5.864;2022-12-17T05:11:42;101903.19;;;-1.75;89.27
48204;BME280;33994;50.998;5.864;2022-12-17T05:14:46;101910.78;;;-1.77;89.74
48204;BME280;33994;50.998;5.864;2022-12-17T05:17:51;101904.59;;;-1.80;89.18
48204;BME280;33994;50.998;5.864;2022-12-17T05:20:54;101906.16;;;-1.84;89.17
48204;BME280;33994;50.998;5.864;2022-12-17T05:23:57;101912.06;;;-1.85;89.16
48204;BME280;33994;50.998;5.864;2022-12-17T05:27:00;101906.94;;;-1.85;89.46
48204;BME280;33994;50.998;5.864;2022-12-17T05:30:04;101908.72;;;-1.84;89.42
48204;BME280;33994;50.998;5.864;2022-12-17T05:33:09;101917.34;;;-1.82;89.39
48204;BME280;33994;50.998;5.864;2022-12-17T05:36:12;101918.34;;;-1.80;89.54
48204;BME280;33994;50.998;5.864;2022-12-17T05:39:15;101926.91;;;-1.79;89.05
48204;BME280;33994;50.998;5.864;2022-12-17T05:42:18;101929.22;;;-1.84;89.09
48204;BME280;33994;50.998;5.864;2022-12-17T05:45:20;101932.56;;;-1.85;88.93
48204;BME280;33994;50.998;5.864;2022-12-17T05:48:25;101924.72;;;-1.88;88.76
48204;BME280;33994;50.998;5.864;2022-12-17T05:51:28;101934.97;;;-1.88;88.94
48204;BME280;33994;50.998;5.864;2022-12-17T05:54:31;101948.69;;;-1.87;88.75
48204;BME280;33994;50.998;5.864;2022-12-17T05:57:34;101941.00;;;-1.87;89.08
48204;BME280;33994;50.998;5.864;2022-12-17T06:00:38;101945.22;;;-1.88;88.75
48204;BME280;33994;50.998;5.864;2022-12-17T06:03:42;101934.19;;;-1.87;88.76
48204;BME280;33994;50.998;5.864;2022-12-17T06:06:45;101952.03;;;-1.88;88.84
48204;BME280;33994;50.998;5.864;2022-12-17T06:09:48;101959.66;;;-1.90;88.69
48204;BME280;33994;50.998;5.864;2022-12-17T06:12:54;101951.16;;;-1.89;88.34
48204;BME280;33994;50.998;5.864;2022-12-17T06:15:57;101958.78;;;-1.90;88.30
48204;BME280;33994;50.998;5.864;2022-12-17T06:19:02;101956.75;;;-1.96;88.21
48204;BME280;33994;50.998;5.864;2022-12-17T06:22:05;101963.50;;;-1.98;88.58
48204;BME280;33994;50.998;5.864;2022-12-17T06:25:08;101960.06;;;-1.99;88.53
48204;BME280;33994;50.998;5.864;2022-12-17T06:28:11;101965.91;;;-2.01;88.26
48204;BME280;33994;50.998;5.864;2022-12-17T06:31:14;101964.84;;;-2.05;88.49
48204;BME280;33994;50.998;5.864;2022-12-17T06:34:19;101967.34;;;-2.06;88.28
48204;BME280;33994;50.998;5.864;2022-12-17T06:37:22;101966.28;;;-2.10;88.56
48204;BME280;33994;50.998;5.864;2022-12-17T06:40:25;101966.03;;;-2.14;88.61
48204;BME280;33994;50.998;5.864;2022-12-17T06:43:28;101965.06;;;-2.16;88.79
48204;BME280;33994;50.998;5.864;2022-12-17T06:46:31;101972.69;;;-2.18;88.71
48204;BME280;33994;50.998;5.864;2022-12-17T06:49:36;101982.81;;;-2.19;89.02
48204;BME280;33994;50.998;5.864;2022-12-17T06:52:38;101988.59;;;-2.24;89.03
48204;BME280;33994;50.998;5.864;2022-12-17T06:55:41;101989.28;;;-2.26;89.37
48204;BME280;33994;50.998;5.864;2022-12-17T06:58:44;101990.19;;;-2.26;89.58
48204;BME280;33994;50.998;5.864;2022-12-17T07:01:47;101989.66;;;-2.35;89.50
48204;BME280;33994;50.998;5.864;2022-12-17T07:04:52;101996.22;;;-2.40;89.75
48204;BME280;33994;50.998;5.864;2022-12-17T07:07:56;101999.41;;;-2.44;89.99
48204;BME280;33994;50.998;5.864;2022-12-17T07:10:59;102001.88;;;-2.45;90.20
48204;BME280;33994;50.998;5.864;2022-12-17T07:14:03;102016.19;;;-2.49;90.32
48204;BME280;33994;50.998;5.864;2022-12-17T07:17:06;102018.75;;;-2.49;90.47
48204;BME280;33994;50.998;5.864;2022-12-17T07:20:10;102019.53;;;-2.50;90.42
48204;BME280;33994;50.998;5.864;2022-12-17T07:23:13;102025.66;;;-2.48;90.51
48204;BME280;33994;50.998;5.864;2022-12-17T07:26:17;102021.31;;;-2.49;90.57
48204;BME280;33994;50.998;5.864;2022-12-17T07:29:20;102024.50;;;-2.53;90.37
48204;BME280;33994;50.998;5.864;2022-12-17T07:32:23;102033.66;;;-2.57;90.74
48204;BME280;33994;50.998;5.864;2022-12-17T07:35:28;102046.41;;;-2.58;90.82
48204;BME280;33994;50.998;5.864;2022-12-17T07:38:31;102046.34;;;-2.60;90.96
48204;BME280;33994;50.998;5.864;2022-12-17T07:41:34;102054.00;;;-2.60;90.88
48204;BME280;33994;50.998;5.864;2022-12-17T07:44:37;102056.41;;;-2.63;90.98
48204;BME280;33994;50.998;5.864;2022-12-17T07:47:40;102062.31;;;-2.64;90.99
48204;BME280;33994;50.998;5.864;2022-12-17T07:50:48;102064.59;;;-2.68;90.98
48204;BME280;33994;50.998;5.864;2022-12-17T07:53:52;102064.44;;;-2.72;91.22
48204;BME280;33994;50.998;5.864;2022-12-17T07:56:54;102065.13;;;-2.74;91.58
48204;BME280;33994;50.998;5.864;2022-12-17T07:59:57;102066.19;;;-2.70;91.65
48204;BME280;33994;50.998;5.864;2022-12-17T08:03:01;102064.50;;;-2.70;91.48
48204;BME280;33994;50.998;5.864;2022-12-17T08:06:05;102058.41;;;-2.72;91.33
48204;BME280;33994;50.998;5.864;2022-12-17T08:09:08;102059.13;;;-2.75;91.44
48204;BME280;33994;50.998;5.864;2022-12-17T08:12:11;102068.38;;;-2.77;91.52
48204;BME280;33994;50.998;5.864;2022-12-17T08:15:15;102067.13;;;-2.83;91.56
48204;BME280;33994;50.998;5.864;2022-12-17T08:18:18;102078.78;;;-2.88;91.74
48204;BME280;33994;50.998;5.864;2022-12-17T08:21:22;102086.88;;;-2.96;91.76
48204;BME280;33994;50.998;5.864;2022-12-17T08:24:25;102084.25;;;-2.97;92.03
48204;BME280;33994;50.998;5.864;2022-12-17T08:27:29;102073.19;;;-2.96;92.28
48204;BME280;33994;50.998;5.864;2022-12-17T08:30:32;102097.31;;;-2.92;92.20
48204;BME280;33994;50.998;5.864;2022-12-17T08:33:35;102091.94;;;-2.97;92.27
48204;BME280;33994;50.998;5.864;2022-12-17T08:36:39;102094.22;;;-3.02;92.17
48204;BME280;33994;50.998;5.864;2022-12-17T08:39:42;102092.34;;;-3.04;92.33
48204;BME280;33994;50.998;5.864;2022-12-17T08:42:46;102100.44;;;-3.11;92.56
48204;BME280;33994;50.998;5.864;2022-12-17T08:45:50;102096.53;;;-3.19;92.42
48204;BME280;33994;50.998;5.864;2022-12-17T08:48:54;102095.72;;;-3.18;93.05
48204;BME280;33994;50.998;5.864;2022-12-17T08:51:59;102103.34;;;-3.20;93.07
48204;BME280;33994;50.998;5.864;2022-12-17T08:55:02;102111.81;;;-3.21;93.25
48204;BME280;33994;50.998;5.864;2022-12-17T08:58:07;102116.41;;;-3.15;93.23
48204;BME280;33994;50.998;5.864;2022-12-17T09:01:10;102123.66;;;-3.08;93.06
48204;BME280;33994;50.998;5.864;2022-12-17T09:04:13;102115.19;;;-3.07;92.92
48204;BME280;33994;50.998;5.864;2022-12-17T09:07:17;102119.81;;;-3.02;92.86
48204;BME280;33994;50.998;5.864;2022-12-17T09:10:21;102124.63;;;-3.06;92.53
48204;BME280;33994;50.998;5.864;2022-12-17T09:13:23;102125.75;;;-3.16;92.56
48204;BME280;33994;50.998;5.864;2022-12-17T09:16:27;102115.91;;;-3.10;92.68
48204;BME280;33994;50.998;5.864;2022-12-17T09:19:30;102119.50;;;-3.06;92.50
48204;BME280;33994;50.998;5.864;2022-12-17T09:22:35;102127.19;;;-3.06;92.41
48204;BME280;33994;50.998;5.864;2022-12-17T09:25:38;102136.28;;;-3.11;92.50
48204;BME280;33994;50.998;5.864;2022-12-17T09:28:41;102148.78;;;-3.16;92.45
48204;BME280;33994;50.998;5.864;2022-12-17T09:31:44;102155.59;;;-3.16;92.59
48204;BME280;33994;50.998;5.864;2022-12-17T09:34:48;102152.84;;;-3.19;92.42
48204;BME280;33994;50.998;5.864;2022-12-17T09:37:53;102154.41;;;-3.22;92.77
48204;BME280;33994;50.998;5.864;2022-12-17T09:40:59;102156.28;;;-3.19;92.55
48204;BME280;33994;50.998;5.864;2022-12-17T09:44:07;102161.09;;;-3.24;92.48
48204;BME280;33994;50.998;5.864;2022-12-17T09:47:31;102165.22;;;-3.26;92.73
48204;BME280;33994;50.998;5.864;2022-12-17T09:50:38;102165.94;;;-3.28;92.58
48204;BME280;33994;50.998;5.864;2022-12-17T09:53:44;102169.28;;;-3.29;92.85
48204;BME280;33994;50.998;5.864;2022-12-17T09:56:49;102169.09;;;-3.32;93.15
48204;BME280;33994;50.998;5.864;2022-12-17T09:59:52;102168.78;;;-3.37;93.42
48204;BME280;33994;50.998;5.864;2022-12-17T10:02:55;102162.91;;;-3.36;93.70
48204;BME280;33994;50.998;5.864;2022-12-17T10:06:03;102169.59;;;-3.38;93.57
48204;BME280;33994;50.998;5.864;2022-12-17T10:09:11;102181.59;;;-3.37;93.70
48204;BME280;33994;50.998;5.864;2022-12-17T10:12:16;102176.97;;;-3.42;93.89
48204;BME280;33994;50.998;5.864;2022-12-17T10:15:20;102172.94;;;-3.39;94.09
48204;BME280;33994;50.998;5.864;2022-12-17T10:18:23;102172.84;;;-3.40;94.08
48204;BME280;33994;50.998;5.864;2022-12-17T10:21:26;102172.66;;;-3.43;94.18
48204;BME280;33994;50.998;5.864;2022-12-17T10:24:30;102179.34;;;-3.46;94.20
48204;BME280;33994;50.998;5.864;2022-12-17T10:27:33;102180.13;;;-3.47;94.28
48204;BME280;33994;50.998;5.864;2022-12-17T10:30:37;102187.22;;;-3.42;94.01
48204;BME280;33994;50.998;5.864;2022-12-17T10:33:40;102176.97;;;-3.42;94.26
48204;BME280;33994;50.998;5.864;2022-12-17T10:36:45;102190.75;;;-3.40;94.23
48204;BME280;33994;50.998;5.864;2022-12-17T10:39:57;102180.41;;;-3.42;94.22
48204;BME280;33994;50.998;5.864;2022-12-17T10:43:01;102184.94;;;-3.38;94.47
48204;BME280;33994;50.998;5.864;2022-12-17T10:46:05;102175.72;;;-3.36;94.47
48204;BME280;33994;50.998;5.864;2022-12-17T10:49:13;102184.75;;;-3.41;94.26
48204;BME280;33994;50.998;5.864;2022-12-17T10:52:28;102186.63;;;-3.38;94.32
48204;BME280;33994;50.998;5.864;2022-12-17T10:55:34;102185.63;;;-3.40;94.61
48204;BME280;33994;50.998;5.864;2022-12-17T10:58:42;102179.47;;;-3.44;94.68
48204;BME280;33994;50.998;5.864;2022-12-17T11:01:46;102180.81;;;-3.36;94.87
48204;BME280;33994;50.998;5.864;2022-12-17T11:04:50;102180.03;;;-3.35;94.46
48204;BME280;33994;50.998;5.864;2022-12-17T11:07:53;102185.13;;;-3.35;94.52
48204;BME280;33994;50.998;5.864;2022-12-17T11:10:58;102184.25;;;-3.35;94.49
48204;BME280;33994;50.998;5.864;2022-12-17T11:14:03;102183.38;;;-3.36;94.31
48204;BME280;33994;50.998;5.864;2022-12-17T11:17:12;102184.34;;;-3.34;94.22
48204;BME280;33994;50.998;5.864;2022-12-17T11:20:21;102190.25;;;-3.35;93.94
48204;BME280;33994;50.998;5.864;2022-12-17T11:23:26;102183.06;;;-3.40;93.69
48204;BME280;33994;50.998;5.864;2022-12-17T11:26:34;102188.78;;;-3.45;93.19
48204;BME280;33994;50.998;5.864;2022-12-17T11:29:38;102181.81;;;-3.47;93.48
48204;BME280;33994;50.998;5.864;2022-12-17T11:33:10;102177.56;;;-3.47;92.99
48204;BME280;33994;50.998;5.864;2022-12-17T11:36:18;102181.59;;;-3.50;93.07
48204;BME280;33994;50.998;5.864;2022-12-17T11:39:29;102187.31;;;-3.54;93.10
48204;BME280;33994;50.998;5.864;2022-12-17T11:42:40;102186.25;;;-3.58;92.86
48204;BME280;33994;50.998;5.864;2022-12-17T11:45:54;102193.13;;;-3.57;93.04
48204;BME280;33994;50.998;5.864;2022-12-17T11:49:07;102190.69;;;-3.55;93.11
48204;BME280;33994;50.998;5.864;2022-12-17T11:52:19;102194.19;;;-3.53;92.87
48204;BME280;33994;50.998;5.864;2022-12-17T11:55:35;102191.25;;;-3.46;93.22
48204;BME280;33994;50.998;5.864;2022-12-17T11:58:43;102187.13;;;-3.44;93.13
48204;BME280;33994;50.998;5.864;2022-12-17T12:01:57;102192.72;;;-3.36;93.46
48204;BME280;33994;50.998;5.864;2022-12-17T12:05:16;102188.88;;;-3.30;93.23
48204;BME280;33994;50.998;5.864;2022-12-17T12:08:23;102192.41;;;-3.28;92.99
48204;BME280;33994;50.998;5.864;2022-12-17T12:11:34;102192.22;;;-3.31;92.84
48204;BME280;33994;50.998;5.864;2022-12-17T12:14:46;102185.53;;;-3.29;92.58
48204;BME280;33994;50.998;5.864;2022-12-17T12:17:58;102183.94;;;-3.27;92.32
48204;BME280;33994;50.998;5.864;2022-12-17T12:21:15;102188.09;;;-3.29;92.26
48204;BME280;33994;50.998;5.864;2022-12-17T12:24:33;102178.63;;;-3.30;92.57
48204;BME280;33994;50.998;5.864;2022-12-17T12:27:49;102185.53;;;-3.29;92.73
48204;BME280;33994;50.998;5.864;2022-12-17T12:31:00;102168.50;;;-3.28;92.64
48204;BME280;33994;50.998;5.864;2022-12-17T12:34:10;102170.00;;;-3.32;92.81
48204;BME280;33994;50.998;5.864;2022-12-17T12:37:16;102170.66;;;-3.21;93.01
48204;BME280;33994;50.998;5.864;2022-12-17T12:40:23;102164.63;;;-3.08;92.86
48204;BME280;33994;50.998;5.864;2022-12-17T12:43:30;102164.22;;;-3.01;92.23
48204;BME280;33994;50.998;5.864;2022-12-17T12:46:40;102153.56;;;-2.94;92.14
48204;BME280;33994;50.998;5.864;2022-12-17T12:49:53;102159.56;;;-2.93;91.79
48204;BME280;33994;50.998;5.864;2022-12-17T12:52:58;102153.56;;;-2.94;91.65
48204;BME280;33994;50.998;5.864;2022-12-17T12:56:02;102145.06;;;-2.93;91.49
48204;BME280;33994;50.998;5.864;2022-12-17T12:59:10;102139.97;;;-2.93;91.25
48204;BME280;33994;50.998;5.864;2022-12-17T13:02:25;102142.25;;;-2.98;91.16
48204;BME280;33994;50.998;5.864;2022-12-17T13:05:36;102141.44;;;-2.97;91.27
48204;BME280;33994;50.998;5.864;2022-12-17T13:08:41;102138.00;;;-2.97;91.13
48204;BME280;33994;50.998;5.864;2022-12-17T13:11:46;102134.28;;;-3.02;90.81
48204;BME280;33994;50.998;5.864;2022-12-17T13:14:53;102134.09;;;-3.05;90.93
48204;BME280;33994;50.998;5.864;2022-12-17T13:18:01;102126.50;;;-3.04;91.28
48204;BME280;33994;50.998;5.864;2022-12-17T13:21:23;102124.75;;;-3.05;91.08
48204;BME280;33994;50.998;5.864;2022-12-17T13:24:27;102125.94;;;-3.13;91.16
48204;BME280;33994;50.998;5.864;2022-12-17T13:27:30;102115.00;;;-3.10;91.64
48204;BME280;33994;50.998;5.864;2022-12-17T13:30:38;102119.44;;;-3.08;91.52
48204;BME280;33994;50.998;5.864;2022-12-17T13:33:45;102121.72;;;-3.12;91.43
48204;BME280;33994;50.998;5.864;2022-12-17T13:36:58;102128.41;;;-3.14;91.32
48204;BME280;33994;50.998;5.864;2022-12-17T13:40:24;102136.06;;;-3.01;92.28
48204;BME280;33994;50.998;5.864;2022-12-17T13:43:31;102132.66;;;-2.87;91.43
48204;BME280;33994;50.998;5.864;2022-12-17T13:46:40;102128.66;;;-2.97;90.63
48204;BME280;33994;50.998;5.864;2022-12-17T13:49:49;102120.69;;;-3.01;90.50
48204;BME280;33994;50.998;5.864;2022-12-17T13:52:52;102120.31;;;-3.07;90.43
48204;BME280;33994;50.998;5.864;2022-12-17T13:55:56;102120.50;;;-3.04;90.85
48204;BME280;33994;50.998;5.864;2022-12-17T13:59:01;102121.50;;;-3.02;91.10
48204;BME280;33994;50.998;5.864;2022-12-17T14:02:05;102126.50;;;-3.04;90.95
48204;BME280;33994;50.998;5.864;2022-12-17T14:05:24;102122.88;;;-3.07;91.05
48204;BME280;33994;50.998;5.864;2022-12-17T14:08:30;102125.69;;;-3.03;91.29
48204;BME280;33994;50.998;5.864;2022-12-17T14:11:36;102124.22;;;-2.99;91.17
48204;BME280;33994;50.998;5.864;2022-12-17T14:14:41;102127.84;;;-2.96;91.22
48204;BME280;33994;50.998;5.864;2022-12-17T14:17:47;102125.41;;;-2.94;90.82
48204;BME280;33994;50.998;5.864;2022-12-17T14:20:53;102122.13;;;-2.91;91.06
48204;BME280;33994;50.998;5.864;2022-12-17T14:23:57;102124.78;;;-2.90;91.00
48204;BME280;33994;50.998;5.864;2022-12-17T14:27:00;102129.03;;;-2.90;91.07
48204;BME280;33994;50.998;5.864;2022-12-17T14:30:20;102137.78;;;-2.87;91.33
48204;BME280;33994;50.998;5.864;2022-12-17T14:33:26;102139.81;;;-2.81;90.94
48204;BME280;33994;50.998;5.864;2022-12-17T14:36:31;102135.75;;;-2.78;90.94
48204;BME280;33994;50.998;5.864;2022-12-17T14:39:35;102135.94;;;-2.75;90.89
48204;BME280;33994;50.998;5.864;2022-12-17T14:42:39;102132.41;;;-2.77;90.87
48204;BME280;33994;50.998;5.864;2022-12-17T14:45:47;102133.38;;;-2.75;91.02
48204;BME280;33994;50.998;5.864;2022-12-17T14:48:55;102135.22;;;-2.72;91.18
48204;BME280;33994;50.998;5.864;2022-12-17T14:52:11;102138.59;;;-2.73;91.26
48204;BME280;33994;50.998;5.864;2022-12-17T14:55:22;102142.16;;;-2.71;91.30
48204;BME280;33994;50.998;5.864;2022-12-17T14:58:26;102153.97;;;-2.73;91.77
48204;BME280;33994;50.998;5.864;2022-12-17T15:01:29;102156.44;;;-2.75;91.38
48204;BME280;33994;50.998;5.864;2022-12-17T15:04:35;102148.97;;;-2.85;91.29
48204;BME280;33994;50.998;5.864;2022-12-17T15:07:40;102149.41;;;-2.92;91.58
48204;BME280;33994;50.998;5.864;2022-12-17T15:10:43;102148.06;;;-3.00;91.54
48204;BME280;33994;50.998;5.864;2022-12-17T15:13:46;102154.56;;;-3.05;91.80
48204;BME280;33994;50.998;5.864;2022-12-17T15:16:50;102158.28;;;-3.00;91.84
48204;BME280;33994;50.998;5.864;2022-12-17T15:19:53;102163.41;;;-3.00;91.66
48204;BME280;33994;50.998;5.864;2022-12-17T15:22:57;102162.13;;;-3.07;91.69
48204;BME280;33994;50.998;5.864;2022-12-17T15:26:02;102163.75;;;-3.09;91.51
48204;BME280;33994;50.998;5.864;2022-12-17T15:29:05;102175.88;;;-3.19;91.70
48204;BME280;33994;50.998;5.864;2022-12-17T15:32:12;102171.94;;;-3.28;91.76
48204;BME280;33994;50.998;5.864;2022-12-17T15:35:19;102175.31;;;-3.29;91.64
48204;BME280;33994;50.998;5.864;2022-12-17T15:38:23;102165.84;;;-3.30;91.84
48204;BME280;33994;50.998;5.864;2022-12-17T15:41:27;102168.09;;;-3.34;91.52
48204;BME280;33994;50.998;5.864;2022-12-17T15:44:30;102169.59;;;-3.38;91.54
48204;BME280;33994;50.998;5.864;2022-12-17T15:47:33;102168.72;;;-3.38;91.48
48204;BME280;33994;50.998;5.864;2022-12-17T15:50:36;102174.03;;;-3.35;91.55
48204;BME280;33994;50.998;5.864;2022-12-17T15:53:41;102184.94;;;-3.38;91.38
48204;BME280;33994;50.998;5.864;2022-12-17T15:56:50;102180.63;;;-3.39;90.94
48204;BME280;33994;50.998;5.864;2022-12-17T15:59:54;102181.03;;;-3.46;90.86
48204;BME280;33994;50.998;5.864;2022-12-17T16:02:57;102189.50;;;-3.47;90.77
48204;BME280;33994;50.998;5.864;2022-12-17T16:06:00;102186.81;;;-3.49;90.82
48204;BME280;33994;50.998;5.864;2022-12-17T16:09:04;102183.28;;;-3.51;90.83